sensor_id;sensor_type;location;lat;lon;timestamp;P1;durP1;ratioP1;P2;durP2;ratioP2
38603;SDS011;24924;50.054;8.790;2024-01-27T00:01:50;8.25;;;3.90;;
38603;SDS011;24924;50.054;8.790;2024-01-27T00:04:15;7.28;;;3.15;;
38603;SDS011;24924;50.054;8.790;2024-01-27T00:06:41;9.95;;;4.05;;
38603;SDS011;24924;50.054;8.790;2024-01-27T00:09:07;7.40;;;3.43;;
38603;SDS011;24924;50.054;8.790;2024-01-27T00:11:33;8.10;;;3.58;;
38603;SDS011;24924;50.054;8.790;2024-01-27T00:13:58;9.73;;;3.70;;
38603;SDS011;24924;50.054;8.790;2024-01-27T00:16:25;11.75;;;3.78;;
38603;SDS011;24924;50.054;8.790;2024-01-27T00:18:50;10.67;;;3.50;;
38603;SDS011;24924;50.054;8.790;2024-01-27T00:21:16;10.75;;;3.20;;
38603;SDS011;24924;50.054;8.790;2024-01-27T00:23:42;8.90;;;3.27;;
38603;SDS011;24924;50.054;8.790;2024-01-27T00:26:08;10.30;;;3.47;;
38603;SDS011;24924;50.054;8.790;2024-01-27T00:28:33;9.33;;;3.80;;
38603;SDS011;24924;50.054;8.790;2024-01-27T00:30:59;7.53;;;3.45;;
38603;SDS011;24924;50.054;8.790;2024-01-27T00:33:25;10.20;;;3.47;;
38603;SDS011;24924;50.054;8.790;2024-01-27T00:35:51;8.65;;;3.72;;
38603;SDS011;24924;50.054;8.790;2024-01-27T00:38:17;9.53;;;3.30;;
38603;SDS011;24924;50.054;8.790;2024-01-27T00:40:42;10.43;;;3.45;;
38603;SDS011;24924;50.054;8.790;2024-01-27T00:43:08;11.73;;;4.32;;
38603;SDS011;24924;50.054;8.790;2024-01-27T00:45:34;9.70;;;3.20;;
38603;SDS011;24924;50.054;8.790;2024-01-27T00:48:00;8.85;;;3.20;;
38603;SDS011;24924;50.054;8.790;2024-01-27T00:50:26;13.73;;;3.37;;
38603;SDS011;24924;50.054;8.790;2024-01-27T00:52:52;8.57;;;3.47;;
38603;SDS011;24924;50.054;8.790;2024-01-27T00:55:17;11.10;;;3.40;;
38603;SDS011;24924;50.054;8.790;2024-01-27T00:57:43;10.27;;;3.30;;
38603;SDS011;24924;50.054;8.790;2024-01-27T01:00:09;10.43;;;3.40;;
38603;SDS011;24924;50.054;8.790;2024-01-27T01:02:36;7.80;;;3.45;;
38603;SDS011;24924;50.054;8.790;2024-01-27T01:05:02;9.07;;;3.50;;
38603;SDS011;24924;50.054;8.790;2024-01-27T01:07:32;8.90;;;3.13;;
38603;SDS011;24924;50.054;8.790;2024-01-27T01:09:58;9.38;;;3.53;;
38603;SDS011;24924;50.054;8.790;2024-01-27T01:12:23;10.33;;;3.43;;
38603;SDS011;24924;50.054;8.790;2024-01-27T01:14:51;8.77;;;3.58;;
38603;SDS011;24924;50.054;8.790;2024-01-27T01:17:17;10.90;;;3.42;;
38603;SDS011;24924;50.054;8.790;2024-01-27T01:19:43;7.43;;;3.40;;
38603;SDS011;24924;50.054;8.790;2024-01-27T01:22:09;7.40;;;3.40;;
38603;SDS011;24924;50.054;8.790;2024-01-27T01:24:34;9.13;;;3.70;;
38603;SDS011;24924;50.054;8.790;2024-01-27T01:27:00;7.87;;;3.57;;
38603;SDS011;24924;50.054;8.790;2024-01-27T01:29:26;8.47;;;3.37;;
38603;SDS011;24924;50.054;8.790;2024-01-27T01:31:52;8.43;;;3.53;;
38603;SDS011;24924;50.054;8.790;2024-01-27T01:34:18;7.13;;;3.40;;
38603;SDS011;24924;50.054;8.790;2024-01-27T01:36:44;7.60;;;3.38;;
38603;SDS011;24924;50.054;8.790;2024-01-27T01:39:10;11.60;;;3.83;;
38603;SDS011;24924;50.054;8.790;2024-01-27T01:41:38;8.20;;;3.53;;
38603;SDS011;24924;50.054;8.790;2024-01-27T01:44:04;7.27;;;3.20;;
38603;SDS011;24924;50.054;8.790;2024-01-27T01:46:30;9.40;;;3.40;;
38603;SDS011;24924;50.054;8.790;2024-01-27T01:48:56;7.30;;;3.37;;
38603;SDS011;24924;50.054;8.790;2024-01-27T01:51:22;6.55;;;3.45;;
38603;SDS011;24924;50.054;8.790;2024-01-27T01:53:48;8.35;;;3.45;;
38603;SDS011;24924;50.054;8.790;2024-01-27T01:56:17;9.57;;;4.17;;
38603;SDS011;24924;50.054;8.790;2024-01-27T01:58:43;8.80;;;3.67;;
38603;SDS011;24924;50.054;8.790;2024-01-27T02:01:09;9.60;;;3.63;;
38603;SDS011;24924;50.054;8.790;2024-01-27T02:03:35;11.40;;;3.30;;
38603;SDS011;24924;50.054;8.790;2024-01-27T02:06:01;11.20;;;3.30;;
38603;SDS011;24924;50.054;8.790;2024-01-27T02:08:26;10.38;;;3.85;;
38603;SDS011;24924;50.054;8.790;2024-01-27T02:10:52;8.33;;;3.40;;
38603;SDS011;24924;50.054;8.790;2024-01-27T02:13:19;8.18;;;3.35;;
38603;SDS011;24924;50.054;8.790;2024-01-27T02:15:46;8.43;;;3.45;;
38603;SDS011;24924;50.054;8.790;2024-01-27T02:18:13;8.45;;;3.30;;
38603;SDS011;24924;50.054;8.790;2024-01-27T02:20:39;12.13;;;3.60;;
38603;SDS011;24924;50.054;8.790;2024-01-27T02:23:05;11.27;;;3.80;;
38603;SDS011;24924;50.054;8.790;2024-01-27T02:25:31;7.38;;;3.25;;
38603;SDS011;24924;50.054;8.790;2024-01-27T02:27:57;9.43;;;3.80;;
38603;SDS011;24924;50.054;8.790;2024-01-27T02:30:23;8.83;;;3.37;;
38603;SDS011;24924;50.054;8.790;2024-01-27T02:32:49;9.70;;;3.25;;
38603;SDS011;24924;50.054;8.790;2024-01-27T02:35:14;10.20;;;4.03;;
38603;SDS011;24924;50.054;8.790;2024-01-27T02:37:41;8.23;;;3.38;;
38603;SDS011;24924;50.054;8.790;2024-01-27T02:40:07;9.32;;;3.05;;
38603;SDS011;24924;50.054;8.790;2024-01-27T02:42:37;9.52;;;3.55;;
38603;SDS011;24924;50.054;8.790;2024-01-27T02:45:03;8.17;;;3.50;;
38603;SDS011;24924;50.054;8.790;2024-01-27T02:47:29;7.45;;;3.33;;
38603;SDS011;24924;50.054;8.790;2024-01-27T02:49:55;8.77;;;4.00;;
38603;SDS011;24924;50.054;8.790;2024-01-27T02:52:21;6.13;;;3.40;;
38603;SDS011;24924;50.054;8.790;2024-01-27T02:54:47;11.75;;;3.90;;
38603;SDS011;24924;50.054;8.790;2024-01-27T02:57:13;7.37;;;3.60;;
38603;SDS011;24924;50.054;8.790;2024-01-27T02:59:40;7.97;;;3.60;;
38603;SDS011;24924;50.054;8.790;2024-01-27T03:02:06;9.13;;;4.22;;
38603;SDS011;24924;50.054;8.790;2024-01-27T03:04:32;10.77;;;4.17;;
38603;SDS011;24924;50.054;8.790;2024-01-27T03:06:58;7.60;;;3.25;;
38603;SDS011;24924;50.054;8.790;2024-01-27T03:09:23;6.33;;;3.60;;
38603;SDS011;24924;50.054;8.790;2024-01-27T03:11:49;7.22;;;3.67;;
38603;SDS011;24924;50.054;8.790;2024-01-27T03:14:15;10.50;;;3.43;;
38603;SDS011;24924;50.054;8.790;2024-01-27T03:16:41;9.88;;;3.83;;
38603;SDS011;24924;50.054;8.790;2024-01-27T03:19:08;7.97;;;3.70;;
38603;SDS011;24924;50.054;8.790;2024-01-27T03:21:34;10.52;;;3.80;;
38603;SDS011;24924;50.054;8.790;2024-01-27T03:24:00;5.65;;;3.30;;
38603;SDS011;24924;50.054;8.790;2024-01-27T03:26:25;11.30;;;3.90;;
38603;SDS011;24924;50.054;8.790;2024-01-27T03:28:51;12.67;;;3.93;;
38603;SDS011;24924;50.054;8.790;2024-01-27T03:31:16;12.60;;;4.07;;
38603;SDS011;24924;50.054;8.790;2024-01-27T03:33:42;7.90;;;3.77;;
38603;SDS011;24924;50.054;8.790;2024-01-27T03:36:12;11.43;;;3.65;;
38603;SDS011;24924;50.054;8.790;2024-01-27T03:38:38;9.07;;;3.72;;
38603;SDS011;24924;50.054;8.790;2024-01-27T03:41:07;8.38;;;3.70;;
38603;SDS011;24924;50.054;8.790;2024-01-27T03:43:33;9.13;;;3.97;;
38603;SDS011;24924;50.054;8.790;2024-01-27T03:45:58;9.90;;;3.78;;
38603;SDS011;24924;50.054;8.790;2024-01-27T03:48:25;10.65;;;3.88;;
38603;SDS011;24924;50.054;8.790;2024-01-27T03:50:51;10.60;;;3.80;;
38603;SDS011;24924;50.054;8.790;2024-01-27T03:53:16;7.40;;;3.40;;
38603;SDS011;24924;50.054;8.790;2024-01-27T03:55:42;13.82;;;3.72;;
38603;SDS011;24924;50.054;8.790;2024-01-27T03:58:08;8.17;;;3.67;;
38603;SDS011;24924;50.054;8.790;2024-01-27T04:00:33;10.63;;;3.50;;
38603;SDS011;24924;50.054;8.790;2024-01-27T04:02:59;8.07;;;3.67;;
38603;SDS011;24924;50.054;8.790;2024-01-27T04:05:25;6.55;;;3.42;;
38603;SDS011;24924;50.054;8.790;2024-01-27T04:07:52;7.30;;;3.40;;
38603;SDS011;24924;50.054;8.790;2024-01-27T04:10:18;14.13;;;3.80;;
38603;SDS011;24924;50.054;8.790;2024-01-27T04:12:44;6.85;;;3.45;;
38603;SDS011;24924;50.054;8.790;2024-01-27T04:15:10;10.55;;;3.58;;
38603;SDS011;24924;50.054;8.790;2024-01-27T04:17:39;7.73;;;3.63;;
38603;SDS011;24924;50.054;8.790;2024-01-27T04:20:06;12.15;;;4.03;;
38603;SDS011;24924;50.054;8.790;2024-01-27T04:22:32;8.15;;;3.05;;
38603;SDS011;24924;50.054;8.790;2024-01-27T04:24:59;7.85;;;3.53;;
38603;SDS011;24924;50.054;8.790;2024-01-27T04:27:26;12.60;;;3.60;;
38603;SDS011;24924;50.054;8.790;2024-01-27T04:29:52;7.47;;;3.08;;
38603;SDS011;24924;50.054;8.790;2024-01-27T04:32:18;9.75;;;3.97;;
38603;SDS011;24924;50.054;8.790;2024-01-27T04:34:44;10.20;;;3.73;;
38603;SDS011;24924;50.054;8.790;2024-01-27T04:37:09;11.75;;;3.28;;
38603;SDS011;24924;50.054;8.790;2024-01-27T04:39:35;11.03;;;3.43;;
38603;SDS011;24924;50.054;8.790;2024-01-27T04:42:02;9.25;;;3.75;;
38603;SDS011;24924;50.054;8.790;2024-01-27T04:44:28;8.25;;;3.60;;
38603;SDS011;24924;50.054;8.790;2024-01-27T04:46:54;6.93;;;3.77;;
38603;SDS011;24924;50.054;8.790;2024-01-27T04:49:19;7.60;;;3.40;;
38603;SDS011;24924;50.054;8.790;2024-01-27T04:51:45;13.70;;;3.72;;
38603;SDS011;24924;50.054;8.790;2024-01-27T04:54:11;14.15;;;3.80;;
38603;SDS011;24924;50.054;8.790;2024-01-27T04:56:36;9.20;;;4.53;;
38603;SDS011;24924;50.054;8.790;2024-01-27T04:59:02;10.23;;;3.30;;
38603;SDS011;24924;50.054;8.790;2024-01-27T05:01:28;10.60;;;3.67;;
38603;SDS011;24924;50.054;8.790;2024-01-27T05:03:53;10.80;;;4.10;;
38603;SDS011;24924;50.054;8.790;2024-01-27T05:06:19;9.15;;;3.33;;
38603;SDS011;24924;50.054;8.790;2024-01-27T05:08:45;8.33;;;3.80;;
38603;SDS011;24924;50.054;8.790;2024-01-27T05:11:11;8.60;;;3.63;;
38603;SDS011;24924;50.054;8.790;2024-01-27T05:13:36;11.82;;;3.70;;
38603;SDS011;24924;50.054;8.790;2024-01-27T05:16:05;9.97;;;3.63;;
38603;SDS011;24924;50.054;8.790;2024-01-27T05:18:31;7.93;;;3.90;;
38603;SDS011;24924;50.054;8.790;2024-01-27T05:20:57;8.38;;;3.88;;
38603;SDS011;24924;50.054;8.790;2024-01-27T05:23:23;8.73;;;3.40;;
38603;SDS011;24924;50.054;8.790;2024-01-27T05:25:49;7.88;;;3.72;;
38603;SDS011;24924;50.054;8.790;2024-01-27T05:28:15;8.30;;;4.50;;
38603;SDS011;24924;50.054;8.790;2024-01-27T05:30:41;9.77;;;3.97;;
38603;SDS011;24924;50.054;8.790;2024-01-27T05:33:08;11.88;;;3.80;;
38603;SDS011;24924;50.054;8.790;2024-01-27T05:35:33;8.93;;;3.73;;
38603;SDS011;24924;50.054;8.790;2024-01-27T05:37:59;10.48;;;4.05;;
38603;SDS011;24924;50.054;8.790;2024-01-27T05:40:25;13.60;;;4.10;;
38603;SDS011;24924;50.054;8.790;2024-01-27T05:42:50;9.20;;;4.05;;
38603;SDS011;24924;50.054;8.790;2024-01-27T05:45:17;9.87;;;4.20;;
38603;SDS011;24924;50.054;8.790;2024-01-27T05:47:43;9.10;;;3.63;;
38603;SDS011;24924;50.054;8.790;2024-01-27T05:50:09;11.48;;;4.10;;
38603;SDS011;24924;50.054;8.790;2024-01-27T05:52:35;10.07;;;3.90;;
38603;SDS011;24924;50.054;8.790;2024-01-27T05:55:01;10.53;;;4.10;;
38603;SDS011;24924;50.054;8.790;2024-01-27T05:57:28;9.70;;;4.00;;
38603;SDS011;24924;50.054;8.790;2024-01-27T05:59:53;9.40;;;3.73;;
38603;SDS011;24924;50.054;8.790;2024-01-27T06:02:19;11.80;;;4.57;;
38603;SDS011;24924;50.054;8.790;2024-01-27T06:04:45;9.20;;;4.20;;
38603;SDS011;24924;50.054;8.790;2024-01-27T06:07:11;8.65;;;4.32;;
38603;SDS011;24924;50.054;8.790;2024-01-27T06:09:37;12.73;;;4.13;;
38603;SDS011;24924;50.054;8.790;2024-01-27T06:12:03;9.67;;;3.70;;
38603;SDS011;24924;50.054;8.790;2024-01-27T06:14:30;7.65;;;3.50;;
38603;SDS011;24924;50.054;8.790;2024-01-27T06:16:55;9.05;;;4.05;;
38603;SDS011;24924;50.054;8.790;2024-01-27T06:19:22;10.20;;;3.83;;
38603;SDS011;24924;50.054;8.790;2024-01-27T06:21:48;13.98;;;4.35;;
38603;SDS011;24924;50.054;8.790;2024-01-27T06:24:13;7.30;;;4.30;;
38603;SDS011;24924;50.054;8.790;2024-01-27T06:26:39;16.58;;;4.15;;
38603;SDS011;24924;50.054;8.790;2024-01-27T06:29:05;11.90;;;3.80;;
38603;SDS011;24924;50.054;8.790;2024-01-27T06:31:30;9.05;;;4.68;;
38603;SDS011;24924;50.054;8.790;2024-01-27T06:33:56;14.60;;;4.47;;
38603;SDS011;24924;50.054;8.790;2024-01-27T06:36:22;11.70;;;4.18;;
38603;SDS011;24924;50.054;8.790;2024-01-27T06:38:50;9.60;;;4.03;;
38603;SDS011;24924;50.054;8.790;2024-01-27T06:41:16;11.35;;;4.10;;
38603;SDS011;24924;50.054;8.790;2024-01-27T06:43:42;12.30;;;4.30;;
38603;SDS011;24924;50.054;8.790;2024-01-27T06:46:08;11.75;;;4.07;;
38603;SDS011;24924;50.054;8.790;2024-01-27T06:48:34;10.53;;;4.30;;
38603;SDS011;24924;50.054;8.790;2024-01-27T06:51:00;8.50;;;4.10;;
38603;SDS011;24924;50.054;8.790;2024-01-27T06:53:26;14.13;;;4.53;;
38603;SDS011;24924;50.054;8.790;2024-01-27T06:55:51;9.80;;;4.27;;
38603;SDS011;24924;50.054;8.790;2024-01-27T06:58:17;9.70;;;4.32;;
38603;SDS011;24924;50.054;8.790;2024-01-27T07:00:43;8.80;;;3.90;;
38603;SDS011;24924;50.054;8.790;2024-01-27T07:03:10;13.57;;;4.15;;
38603;SDS011;24924;50.054;8.790;2024-01-27T07:05:36;8.48;;;3.97;;
38603;SDS011;24924;50.054;8.790;2024-01-27T07:08:06;14.90;;;4.05;;
38603;SDS011;24924;50.054;8.790;2024-01-27T07:10:33;12.35;;;4.50;;
38603;SDS011;24924;50.054;8.790;2024-01-27T07:12:59;12.07;;;4.33;;
38603;SDS011;24924;50.054;8.790;2024-01-27T07:15:25;10.10;;;3.90;;
38603;SDS011;24924;50.054;8.790;2024-01-27T07:17:52;6.88;;;4.25;;
38603;SDS011;24924;50.054;8.790;2024-01-27T07:20:18;10.27;;;4.20;;
38603;SDS011;24924;50.054;8.790;2024-01-27T07:22:45;9.67;;;4.27;;
38603;SDS011;24924;50.054;8.790;2024-01-27T07:25:14;12.88;;;4.07;;
38603;SDS011;24924;50.054;8.790;2024-01-27T07:27:40;8.50;;;4.40;;
38603;SDS011;24924;50.054;8.790;2024-01-27T07:30:06;6.57;;;3.87;;
38603;SDS011;24924;50.054;8.790;2024-01-27T07:32:34;10.60;;;4.32;;
38603;SDS011;24924;50.054;8.790;2024-01-27T07:35:00;8.68;;;4.00;;
38603;SDS011;24924;50.054;8.790;2024-01-27T07:37:26;12.07;;;3.83;;
38603;SDS011;24924;50.054;8.790;2024-01-27T07:39:52;12.88;;;4.55;;
38603;SDS011;24924;50.054;8.790;2024-01-27T07:42:18;9.73;;;3.83;;
38603;SDS011;24924;50.054;8.790;2024-01-27T07:44:43;8.68;;;4.13;;
38603;SDS011;24924;50.054;8.790;2024-01-27T07:47:09;9.67;;;4.30;;
38603;SDS011;24924;50.054;8.790;2024-01-27T07:49:35;12.07;;;3.90;;
38603;SDS011;24924;50.054;8.790;2024-01-27T07:52:01;13.90;;;4.07;;
38603;SDS011;24924;50.054;8.790;2024-01-27T07:54:27;12.52;;;4.28;;
38603;SDS011;24924;50.054;8.790;2024-01-27T07:56:54;14.97;;;4.57;;
38603;SDS011;24924;50.054;8.790;2024-01-27T07:59:20;15.30;;;4.25;;
38603;SDS011;24924;50.054;8.790;2024-01-27T08:01:45;9.00;;;4.47;;
38603;SDS011;24924;50.054;8.790;2024-01-27T08:04:11;9.07;;;4.20;;
38603;SDS011;24924;50.054;8.790;2024-01-27T08:06:47;8.85;;;4.22;;
38603;SDS011;24924;50.054;8.790;2024-01-27T08:09:14;7.78;;;4.10;;
38603;SDS011;24924;50.054;8.790;2024-01-27T08:11:40;9.03;;;4.13;;
38603;SDS011;24924;50.054;8.790;2024-01-27T08:14:06;9.38;;;4.40;;
38603;SDS011;24924;50.054;8.790;2024-01-27T08:16:32;7.67;;;4.00;;
38603;SDS011;24924;50.054;8.790;2024-01-27T08:18:58;10.65;;;4.30;;
38603;SDS011;24924;50.054;8.790;2024-01-27T08:21:23;9.02;;;4.32;;
38603;SDS011;24924;50.054;8.790;2024-01-27T08:23:49;14.70;;;4.63;;
38603;SDS011;24924;50.054;8.790;2024-01-27T08:26:15;11.20;;;4.55;;
38603;SDS011;24924;50.054;8.790;2024-01-27T08:28:41;11.53;;;4.30;;
38603;SDS011;24924;50.054;8.790;2024-01-27T08:31:07;7.82;;;4.00;;
38603;SDS011;24924;50.054;8.790;2024-01-27T08:33:32;11.30;;;4.40;;
38603;SDS011;24924;50.054;8.790;2024-01-27T08:35:58;13.70;;;4.87;;
38603;SDS011;24924;50.054;8.790;2024-01-27T08:38:24;13.75;;;4.18;;
38603;SDS011;24924;50.054;8.790;2024-01-27T08:40:50;13.38;;;4.00;;
38603;SDS011;24924;50.054;8.790;2024-01-27T08:43:16;14.50;;;4.20;;
38603;SDS011;24924;50.054;8.790;2024-01-27T08:45:42;11.07;;;4.65;;
38603;SDS011;24924;50.054;8.790;2024-01-27T08:48:07;10.00;;;4.33;;
38603;SDS011;24924;50.054;8.790;2024-01-27T08:50:35;11.27;;;4.78;;
38603;SDS011;24924;50.054;8.790;2024-01-27T08:53:00;15.93;;;5.77;;
38603;SDS011;24924;50.054;8.790;2024-01-27T08:55:27;17.08;;;5.22;;
38603;SDS011;24924;50.054;8.790;2024-01-27T08:57:53;12.00;;;4.60;;
38603;SDS011;24924;50.054;8.790;2024-01-27T09:00:18;10.80;;;4.83;;
38603;SDS011;24924;50.054;8.790;2024-01-27T09:02:44;9.68;;;4.38;;
38603;SDS011;24924;50.054;8.790;2024-01-27T09:05:11;8.82;;;3.97;;
38603;SDS011;24924;50.054;8.790;2024-01-27T09:07:37;11.15;;;3.63;;
38603;SDS011;24924;50.054;8.790;2024-01-27T09:10:03;8.80;;;3.67;;
38603;SDS011;24924;50.054;8.790;2024-01-27T09:12:28;10.50;;;4.00;;
38603;SDS011;24924;50.054;8.790;2024-01-27T09:14:54;10.47;;;4.03;;
38603;SDS011;24924;50.054;8.790;2024-01-27T09:17:20;11.55;;;3.33;;
38603;SDS011;24924;50.054;8.790;2024-01-27T09:19:46;11.60;;;4.30;;
38603;SDS011;24924;50.054;8.790;2024-01-27T09:22:12;14.57;;;4.00;;
38603;SDS011;24924;50.054;8.790;2024-01-27T09:24:38;7.63;;;3.60;;
38603;SDS011;24924;50.054;8.790;2024-01-27T09:27:05;9.77;;;3.70;;
38603;SDS011;24924;50.054;8.790;2024-01-27T09:29:31;8.43;;;3.50;;
38603;SDS011;24924;50.054;8.790;2024-01-27T09:31:56;10.80;;;3.92;;
38603;SDS011;24924;50.054;8.790;2024-01-27T09:34:22;11.70;;;3.93;;
38603;SDS011;24924;50.054;8.790;2024-01-27T09:36:48;9.50;;;3.80;;
38603;SDS011;24924;50.054;8.790;2024-01-27T09:39:13;10.67;;;3.83;;
38603;SDS011;24924;50.054;8.790;2024-01-27T09:41:39;14.45;;;4.30;;
38603;SDS011;24924;50.054;8.790;2024-01-27T09:44:05;11.33;;;4.00;;
38603;SDS011;24924;50.054;8.790;2024-01-27T09:46:31;10.85;;;3.67;;
38603;SDS011;24924;50.054;8.790;2024-01-27T09:48:57;10.05;;;4.22;;
38603;SDS011;24924;50.054;8.790;2024-01-27T09:51:24;11.23;;;4.65;;
38603;SDS011;24924;50.054;8.790;2024-01-27T09:53:54;8.98;;;3.60;;
38603;SDS011;24924;50.054;8.790;2024-01-27T09:56:20;12.83;;;3.97;;
38603;SDS011;24924;50.054;8.790;2024-01-27T09:58:47;10.98;;;4.10;;
38603;SDS011;24924;50.054;8.790;2024-01-27T10:01:18;11.35;;;4.10;;
38603;SDS011;24924;50.054;8.790;2024-01-27T10:03:46;14.38;;;4.10;;
38603;SDS011;24924;50.054;8.790;2024-01-27T10:06:12;9.23;;;4.10;;
38603;SDS011;24924;50.054;8.790;2024-01-27T10:08:40;10.30;;;4.43;;
38603;SDS011;24924;50.054;8.790;2024-01-27T10:11:09;11.65;;;4.60;;
38603;SDS011;24924;50.054;8.790;2024-01-27T10:13:35;8.88;;;4.22;;
38603;SDS011;24924;50.054;8.790;2024-01-27T10:16:02;11.80;;;3.73;;
38603;SDS011;24924;50.054;8.790;2024-01-27T10:18:31;7.32;;;3.78;;
38603;SDS011;24924;50.054;8.790;2024-01-27T10:20:58;11.18;;;4.38;;
38603;SDS011;24924;50.054;8.790;2024-01-27T10:23:24;9.27;;;3.75;;
38603;SDS011;24924;50.054;8.790;2024-01-27T10:25:50;12.68;;;4.60;;
38603;SDS011;24924;50.054;8.790;2024-01-27T10:28:16;9.93;;;4.30;;
38603;SDS011;24924;50.054;8.790;2024-01-27T10:30:43;9.57;;;3.90;;
38603;SDS011;24924;50.054;8.790;2024-01-27T10:33:10;10.38;;;3.80;;
38603;SDS011;24924;50.054;8.790;2024-01-27T10:35:38;8.35;;;3.53;;
38603;SDS011;24924;50.054;8.790;2024-01-27T10:38:08;12.20;;;4.30;;
38603;SDS011;24924;50.054;8.790;2024-01-27T10:40:35;10.80;;;3.80;;
38603;SDS011;24924;50.054;8.790;2024-01-27T10:43:03;10.60;;;3.83;;
38603;SDS011;24924;50.054;8.790;2024-01-27T10:45:36;9.00;;;3.50;;
38603;SDS011;24924;50.054;8.790;2024-01-27T10:48:04;10.05;;;3.47;;
38603;SDS011;24924;50.054;8.790;2024-01-27T10:50:35;9.65;;;3.80;;
38603;SDS011;24924;50.054;8.790;2024-01-27T10:53:03;12.03;;;3.70;;
38603;SDS011;24924;50.054;8.790;2024-01-27T10:55:33;14.02;;;3.72;;
38603;SDS011;24924;50.054;8.790;2024-01-27T10:58:01;9.77;;;3.50;;
38603;SDS011;24924;50.054;8.790;2024-01-27T11:00:28;8.85;;;3.40;;
38603;SDS011;24924;50.054;8.790;2024-01-27T11:02:59;15.02;;;3.92;;
38603;SDS011;24924;50.054;8.790;2024-01-27T11:05:27;10.73;;;3.10;;
38603;SDS011;24924;50.054;8.790;2024-01-27T11:07:55;10.77;;;3.13;;
38603;SDS011;24924;50.054;8.790;2024-01-27T11:10:22;10.40;;;3.35;;
38603;SDS011;24924;50.054;8.790;2024-01-27T11:12:49;10.15;;;3.38;;
38603;SDS011;24924;50.054;8.790;2024-01-27T11:15:16;10.27;;;3.10;;
38603;SDS011;24924;50.054;8.790;2024-01-27T11:17:42;10.87;;;3.37;;
38603;SDS011;24924;50.054;8.790;2024-01-27T11:20:08;12.55;;;3.53;;
38603;SDS011;24924;50.054;8.790;2024-01-27T11:22:36;8.70;;;2.72;;
38603;SDS011;24924;50.054;8.790;2024-01-27T11:27:39;9.70;;;3.00;;
38603;SDS011;24924;50.054;8.790;2024-01-27T11:30:06;11.52;;;3.60;;
38603;SDS011;24924;50.054;8.790;2024-01-27T11:32:53;10.90;;;3.88;;
38603;SDS011;24924;50.054;8.790;2024-01-27T11:35:23;7.93;;;3.15;;
38603;SDS011;24924;50.054;8.790;2024-01-27T11:37:49;8.27;;;2.95;;
38603;SDS011;24924;50.054;8.790;2024-01-27T11:40:15;9.53;;;3.20;;
38603;SDS011;24924;50.054;8.790;2024-01-27T11:42:41;7.20;;;2.90;;
38603;SDS011;24924;50.054;8.790;2024-01-27T11:45:08;9.77;;;3.25;;
38603;SDS011;24924;50.054;8.790;2024-01-27T11:47:35;12.20;;;3.65;;
38603;SDS011;24924;50.054;8.790;2024-01-27T11:50:01;11.63;;;3.28;;
38603;SDS011;24924;50.054;8.790;2024-01-27T11:52:27;9.50;;;2.80;;
38603;SDS011;24924;50.054;8.790;2024-01-27T11:54:59;11.15;;;2.63;;
38603;SDS011;24924;50.054;8.790;2024-01-27T11:57:26;8.98;;;3.00;;
38603;SDS011;24924;50.054;8.790;2024-01-27T11:59:52;15.00;;;3.30;;
38603;SDS011;24924;50.054;8.790;2024-01-27T12:02:19;11.88;;;3.10;;
38603;SDS011;24924;50.054;8.790;2024-01-27T12:04:45;9.93;;;2.90;;
38603;SDS011;24924;50.054;8.790;2024-01-27T12:07:12;10.02;;;3.25;;
38603;SDS011;24924;50.054;8.790;2024-01-27T12:09:39;11.30;;;3.20;;
38603;SDS011;24924;50.054;8.790;2024-01-27T12:12:06;13.20;;;3.30;;
38603;SDS011;24924;50.054;8.790;2024-01-27T12:14:37;8.25;;;2.83;;
38603;SDS011;24924;50.054;8.790;2024-01-27T12:17:04;10.32;;;3.00;;
38603;SDS011;24924;50.054;8.790;2024-01-27T12:19:30;10.68;;;3.05;;
38603;SDS011;24924;50.054;8.790;2024-01-27T12:21:56;11.17;;;3.23;;
38603;SDS011;24924;50.054;8.790;2024-01-27T12:24:23;11.60;;;3.33;;
38603;SDS011;24924;50.054;8.790;2024-01-27T12:26:49;13.75;;;3.50;;
38603;SDS011;24924;50.054;8.790;2024-01-27T12:29:15;10.88;;;3.45;;
38603;SDS011;24924;50.054;8.790;2024-01-27T12:31:41;9.37;;;3.00;;
38603;SDS011;24924;50.054;8.790;2024-01-27T12:34:07;9.53;;;3.17;;
38603;SDS011;24924;50.054;8.790;2024-01-27T12:36:34;9.85;;;2.88;;
38603;SDS011;24924;50.054;8.790;2024-01-27T12:39:04;11.60;;;3.42;;
38603;SDS011;24924;50.054;8.790;2024-01-27T12:41:30;8.40;;;2.90;;
38603;SDS011;24924;50.054;8.790;2024-01-27T12:43:58;6.78;;;2.60;;
38603;SDS011;24924;50.054;8.790;2024-01-27T12:46:24;14.07;;;3.33;;
38603;SDS011;24924;50.054;8.790;2024-01-27T12:48:50;10.20;;;3.00;;
38603;SDS011;24924;50.054;8.790;2024-01-27T12:51:16;9.77;;;3.30;;
38603;SDS011;24924;50.054;8.790;2024-01-27T12:53:42;7.50;;;2.90;;
38603;SDS011;24924;50.054;8.790;2024-01-27T12:56:09;8.48;;;2.92;;
38603;SDS011;24924;50.054;8.790;2024-01-27T12:58:36;7.63;;;3.08;;
38603;SDS011;24924;50.054;8.790;2024-01-27T13:01:03;12.63;;;3.40;;
38603;SDS011;24924;50.054;8.790;2024-01-27T13:03:29;8.95;;;3.30;;
38603;SDS011;24924;50.054;8.790;2024-01-27T13:05:55;8.70;;;2.97;;
38603;SDS011;24924;50.054;8.790;2024-01-27T13:08:22;9.27;;;3.00;;
38603;SDS011;24924;50.054;8.790;2024-01-27T13:10:48;7.10;;;2.30;;
38603;SDS011;24924;50.054;8.790;2024-01-27T13:13:14;9.75;;;2.70;;
38603;SDS011;24924;50.054;8.790;2024-01-27T13:15:40;6.60;;;2.50;;
38603;SDS011;24924;50.054;8.790;2024-01-27T13:18:06;8.23;;;2.72;;
38603;SDS011;24924;50.054;8.790;2024-01-27T13:20:32;12.93;;;2.37;;
38603;SDS011;24924;50.054;8.790;2024-01-27T13:22:58;11.18;;;2.70;;
38603;SDS011;24924;50.054;8.790;2024-01-27T13:25:24;8.60;;;3.00;;
38603;SDS011;24924;50.054;8.790;2024-01-27T13:27:50;11.47;;;3.00;;
38603;SDS011;24924;50.054;8.790;2024-01-27T13:30:16;9.18;;;2.88;;
38603;SDS011;24924;50.054;8.790;2024-01-27T13:32:45;11.05;;;2.45;;
38603;SDS011;24924;50.054;8.790;2024-01-27T13:35:11;9.00;;;3.10;;
38603;SDS011;24924;50.054;8.790;2024-01-27T13:37:37;10.90;;;3.30;;
38603;SDS011;24924;50.054;8.790;2024-01-27T13:40:04;10.30;;;2.78;;
38603;SDS011;24924;50.054;8.790;2024-01-27T13:42:32;14.52;;;2.80;;
38603;SDS011;24924;50.054;8.790;2024-01-27T13:44:58;8.57;;;2.92;;
38603;SDS011;24924;50.054;8.790;2024-01-27T13:47:24;9.45;;;2.80;;
38603;SDS011;24924;50.054;8.790;2024-01-27T13:49:51;8.93;;;2.53;;
38603;SDS011;24924;50.054;8.790;2024-01-27T13:52:17;8.48;;;3.17;;
38603;SDS011;24924;50.054;8.790;2024-01-27T13:54:43;7.30;;;2.93;;
38603;SDS011;24924;50.054;8.790;2024-01-27T13:57:09;9.73;;;2.80;;
38603;SDS011;24924;50.054;8.790;2024-01-27T13:59:38;11.77;;;4.15;;
38603;SDS011;24924;50.054;8.790;2024-01-27T14:02:04;7.83;;;2.87;;
38603;SDS011;24924;50.054;8.790;2024-01-27T14:04:30;11.13;;;2.75;;
38603;SDS011;24924;50.054;8.790;2024-01-27T14:06:56;9.27;;;2.70;;
38603;SDS011;24924;50.054;8.790;2024-01-27T14:09:25;15.80;;;3.63;;
38603;SDS011;24924;50.054;8.790;2024-01-27T14:11:52;12.30;;;3.97;;
38603;SDS011;24924;50.054;8.790;2024-01-27T14:14:17;7.93;;;2.57;;
38603;SDS011;24924;50.054;8.790;2024-01-27T14:16:43;9.20;;;2.50;;
38603;SDS011;24924;50.054;8.790;2024-01-27T14:19:10;12.40;;;3.40;;
38603;SDS011;24924;50.054;8.790;2024-01-27T14:21:36;11.67;;;3.47;;
38603;SDS011;24924;50.054;8.790;2024-01-27T14:24:02;10.75;;;2.90;;
38603;SDS011;24924;50.054;8.790;2024-01-27T14:26:31;11.18;;;3.58;;
38603;SDS011;24924;50.054;8.790;2024-01-27T14:28:57;16.50;;;3.53;;
38603;SDS011;24924;50.054;8.790;2024-01-27T14:31:23;10.48;;;3.00;;
38603;SDS011;24924;50.054;8.790;2024-01-27T14:33:49;9.65;;;3.38;;
38603;SDS011;24924;50.054;8.790;2024-01-27T14:36:15;9.80;;;3.03;;
38603;SDS011;24924;50.054;8.790;2024-01-27T14:38:41;8.20;;;2.60;;